Weather observations for the past three days for
Jerome County Airport
Metric (Imperial)
Date Time (mdt) Wind (kph) Vis. (km) Weather Sky Cond. Temperature (ºC) Relative Humidity Wind Chill (°C) Heat Index (°C) Pressure Precipitation (cm)
Air Dwpt 6 hour altimeter (cm) sea level (mb) 1 hr 3 hr 6 hr
Max. Min.
02 11:53 SW 24 G 39 16.09 Fair CLR 21.7 -4.4 21.7 12.2 17% 76.12 1011.5
02 10:53 W 19 16.09 Fair CLR 20.6 -3.3 20% 76.1 1011.0
02 09:53 SW 15 16.09 Fair CLR 17.8 2.2 35% 76.05 1010.5
02 08:53 SW 19 16.09 Fair CLR 15.6 0 35% 76 1010.3
02 07:53 SW 20 16.09 Fair CLR 13.9 0.6 41% 75.95 1009.3
02 06:53 SW 19 16.09 Fair CLR 12.8 2.2 49% 75.79 1007.4
02 05:53 S 15 16.09 Fair CLR 14.4 4.4 18.9 12.2 51% 75.74 1006.6
02 04:53 E 6 16.09 Fair CLR 15 4.4 49% 75.69 1005.6
02 03:53 SE 7 16.09 Fair CLR 13.3 6.7 65% 75.69 1005.4
02 02:53 SE 9 16.09 Fair CLR 15.6 8.3 62% 75.69 1004.9
02 01:53 S 9 16.09 Fair CLR 16.7 7.8 56% 75.69 1004.9
02 00:53 S 15 16.09 Fair CLR 17.2 7.2 52% 75.69 1004.9
01 23:53 S 13 16.09 Fair CLR 17.2 7.8 23.9 17.2 54% 75.72 1005.4
01 22:53 S 13 16.09 Fair CLR 19.4 8.3 49% 75.72 1005.4
01 21:53 SE 19 16.09 Fair CLR 20 10 53% 75.67 1005.2
01 20:53 E 22 16.09 Fair CLR 20.6 10 51% 75.67 1005.3
01 19:53 E 22 16.09 Fair CLR 22.2 9.4 44% 75.69 1005.7
01 18:53 E 20 16.09 Fair CLR 23.3 10 43% 75.72 1006.0
01 17:53 E 19 G 37 16.09 Fair CLR 22.8 11.1 29.4 16.7 48% 75.77 1006.9 0.61 0.69
01 16:53 E 24 G 39 11.27 Thunderstorm Rain SCT070 BKN090 OVC110 24.4 3.9 26% 25 75.87 1008.0 0.08
01 15:53 E 13 16.09 Fair CLR 26.7 7.8 30% 26 75.84 1007.1
01 14:53 E 22 G 33 16.09 Fair CLR 29.4 6.1 23% 28 75.9 1007.4
01 13:53 SE 15 G 28 16.09 Fair CLR 28.3 6.7 25% 27 75.97 1008.7
01 12:53 E 24 16.09 Fair CLR 27.8 8.3 29% 27 76.02 1009.5
01 11:53 E 24 G 39 16.09 Fair CLR 26.1 9.4 26.1 15 35% 26 76.1 1010.3
01 10:53 E 26 16.09 Fair CLR 23.3 9.4 41% 76.12 1010.7
01 09:53 E 30 16.09 Fair CLR 20.6 11.1 55% 76.12 1010.7
01 08:53 E 30 16.09 Fair CLR 18.3 10 59% 76.12 1011.0
01 07:53 E 28 16.09 Fair CLR 15.6 10 70% 76.1 1010.9
01 06:53 E 26 16.09 Fair CLR 15 8.9 67% 76.07 1010.4
01 05:53 E 26 16.09 Fair CLR 15 8.9 20 15 67% 76.07 1010.2
01 04:53 E 24 16.09 Fair CLR 16.7 8.3 58% 76.07 1010.1
01 03:53 E 30 16.09 Fair CLR 17.8 7.8 52% 76.05 1009.8
01 02:53 E 26 16.09 Fair CLR 18.9 7.8 49% 76.05 1009.7
01 01:53 E 24 16.09 Fair CLR 17.8 8.9 56% 76.05 1009.7
01 00:53 E 20 16.09 Fair CLR 18.9 8.3 50% 76.02 1009.7
31 23:53 SE 24 16.09 Fair CLR 20 7.8 29.4 20 45% 76.05 1010.0
31 22:53 E 28 16.09 Fair CLR 22.8 5 32% 76.05 1010.1
31 21:53 E 37 G 54 16.09 Fair and Breezy CLR 23.9 3.9 27% 25 76.02 1010.1
31 20:53 SE 37 G 52 14.48 Fair and Breezy CLR 24.4 5 29% 25 76 1010.0
31 19:53 S 17 16.09 Fair CLR 26.7 7.2 29% 26 76 1010.1
31 18:53 E 9 16.09 Fair CLR 29.4 3.9 20% 28 75.97 1009.9
31 17:53 N 6 16.09 Fair CLR 28.9 4.4 29.4 22.8 21% 27 76 1010.1
31 16:53 N 11 16.09 Fair CLR 28.9 2.8 19% 27 76.05 1010.5
31 15:53 Calm 16.09 Fair CLR 28.3 1.1 17% 27 76.1 1011.1
31 14:53 NE 13 16.09 Fair CLR 27.8 0.6 17% 27 76.17 1012.1
31 13:53 NE 13 16.09 Fair CLR 26.1 0.6 19% 26 76.28 1013.7
31 12:53 E 13 16.09 Fair CLR 24.4 -4.4 14% 24 76.35 1014.7
31 11:53 E 17 16.09 Fair CLR 22.8 -5 22.8 6.1 15% 76.4 1015.6
31 10:53 NE 20 16.09 Fair CLR 20.6 -2.8 21% 76.4 1015.7
31 09:53 E 15 16.09 Fair CLR 16.7 0 32% 76.43 1016.3
31 08:53 E 17 16.09 Fair CLR 13.9 -1.1 36% 76.4 1016.1
31 07:53 E 17 16.09 Fair CLR 10 -1.1 46% 8 76.4 1016.5
31 06:53 NE 19 16.09 Fair CLR 7.2 0 61% 4 76.38 1016.3
31 05:53 E 9 16.09 Fair CLR 8.9 -2.2 15 6.7 46% 8 76.4 1016.1
31 04:53 SE 11 16.09 Fair CLR 9.4 -3.3 41% 8 76.38 1015.7
31 03:53 SE 6 16.09 Fair CLR 11.1 -4.4 34% 76.38 1015.7
31 02:53 S 6 16.09 Fair CLR 12.8 -3.9 31% 76.38 1015.8
31 01:53 SE 11 16.09 Fair CLR 11.1 -1.1 43% 76.38 1016.1
31 00:53 S 9 16.09 Fair CLR 12.8 -1.7 37% 76.38 1016.0
30 23:53 SE 11 16.09 Fair CLR 13.9 -2.2 23.3 13.9 33% 76.38 1016.1
30 22:53 SW 9 16.09 Fair CLR 16.1 -3.9 25% 76.38 1016.0
30 21:53 W 13 16.09 Fair CLR 16.1 -2.2 29% 76.35 1015.9
30 20:53 SW 11 16.09 Fair CLR 19.4 -3.3 21% 76.33 1015.1
30 19:53 SW 9 16.09 Fair CLR 20 -1.7 23% 76.3 1015.2
30 18:53 W 13 16.09 Light Rain CLR 22.2 -3.9 17% 76.33 1015.0
30 17:53 W 19 16.09 Fair CLR 23.3 -3.9 23.9 16.7 16% 76.33 1015.0
30 16:53 W 20 16.09 Fair CLR 23.3 -3.9 16% 76.35 1015.1
30 15:53 W 20 16.09 Fair CLR 22.2 -1.1 21% 76.43 1016.0
30 14:53 W 19 G 35 16.09 Fair CLR 20.6 0 25% 76.45 1016.8
30 13:53 W 22 G 35 16.09 Fair CLR 19.4 0.6 29% 76.48 1017.0
30 12:53 W 19 G 37 16.09 Fair CLR 17.8 1.1 33% 76.53 1017.6
Date Time (mdt) Wind (kph) Vis. (km) Weather Sky Cond. Air Dwpt Max. Min. Relative Humidity Wind Chill (°C) Heat Index (°C) altimeter (cm) sea level (mb) 1 hr 3 hr 6 hr
6 hour
Temperature (ºC) Pressure Precipitation (cm)